Burns, Wyoming
Current Conditions -  °F | °C
As of 2:15 AM on Wednesday 28 Jan 2015 (Local Time) from K82V Reporting Station
Clear Clear  
Wind Chill: 39°   Ceiling: Unl
Heat Index: 46°   Visibility: 10mi
Dew Point: 28°   Wind: 20mph
Humidity: 50%   Direction: 300°WNW
Pressure: 29.99"   Gusts: 25mph
Location:  41.19°N, 104.36°W
Report Text: K82V 280915Z AUTO 30017G22KT 10SM CLR 08/M02 A2999 RMK AO2
Loading
Personal Weather Stations






























Interactive Weather Map New forecast layout! Learn more

10-Day Weather Forecast

Advertisements
Track Severe Weather on mobile